EWG2B EDDK-LSZH
Flight info
| Callsign | EWG2B |
|---|---|
| Flight time | N/A |
| Altitude | 31000 |
| Route | KUMIK1R KUMIK Y854 BOMBI T721 LAMGO/N0412F270 T721 RILAX |
| Aircraft | A319/M-SDE3FGHIRWY/LB1 |
Departure
| Time | 2026-04-24 16:14 |
|---|---|
| Airport | Cologne Bonn Airport (EDDK) |
Arrival
| Time | N/A |
|---|---|
| Airport | Zürich Airport (LSZH) |
| Time | Latitude | Longitude | Altitude | Speed | Heading |
|---|---|---|---|---|---|
| 2026-04-24 15:31 | 50.87908 | 7.12494 | 232 ft | 0 kts | 288° |
| 2026-04-24 16:03 | 50.87903 | 7.12515 | 236 ft | 4 kts | 288° |
| 2026-04-24 16:04 | 50.87896 | 7.12549 | 233 ft | 3 kts | 288° |
| 2026-04-24 16:04 | 50.87892 | 7.12588 | 232 ft | 4 kts | 253° |
| 2026-04-24 16:04 | 50.87906 | 7.12619 | 237 ft | 4 kts | 206° |
| 2026-04-24 16:04 | 50.87914 | 7.12625 | 237 ft | 0 kts | 198° |
| 2026-04-24 16:07 | 50.87906 | 7.12621 | 237 ft | 3 kts | 198° |
| 2026-04-24 16:07 | 50.87758 | 7.12714 | 232 ft | 19 kts | 137° |
| 2026-04-24 16:08 | 50.87662 | 7.12853 | 232 ft | 19 kts | 137° |
| 2026-04-24 16:08 | 50.87425 | 7.13197 | 232 ft | 25 kts | 137° |
| 2026-04-24 16:09 | 50.87166 | 7.13573 | 237 ft | 25 kts | 137° |
| 2026-04-24 16:09 | 50.87032 | 7.13767 | 242 ft | 28 kts | 137° |
| 2026-04-24 16:09 | 50.86904 | 7.13951 | 252 ft | 24 kts | 137° |
| 2026-04-24 16:09 | 50.86795 | 7.14109 | 255 ft | 12 kts | 136° |
| 2026-04-24 16:10 | 50.86616 | 7.14307 | 261 ft | 17 kts | 137° |
| 2026-04-24 16:11 | 50.86377 | 7.14653 | 273 ft | 26 kts | 137° |
| 2026-04-24 16:11 | 50.86250 | 7.14839 | 281 ft | 24 kts | 137° |
| 2026-04-24 16:11 | 50.86131 | 7.15009 | 286 ft | 23 kts | 137° |
| 2026-04-24 16:12 | 50.86073 | 7.15322 | 293 ft | 15 kts | 47° |
| 2026-04-24 16:12 | 50.86145 | 7.15361 | 290 ft | 6 kts | 354° |
| 2026-04-24 16:12 | 50.86245 | 7.15327 | 291 ft | 10 kts | 347° |
| 2026-04-24 16:13 | 50.86325 | 7.15299 | 291 ft | 12 kts | 347° |
| 2026-04-24 16:13 | 50.86420 | 7.15266 | 283 ft | 8 kts | 313° |
| 2026-04-24 16:14 | 50.86748 | 7.14789 | 268 ft | 83 kts | 317° |
| 2026-04-24 16:14 | 50.87317 | 7.13965 | 243 ft | 138 kts | 317° |
| 2026-04-24 16:14 | 50.88912 | 7.11680 | 1378 ft | 161 kts | 319° |
| 2026-04-24 16:15 | 50.89569 | 7.11083 | 1818 ft | 169 kts | 342° |
| 2026-04-24 16:15 | 50.92296 | 7.12800 | 3225 ft | 196 kts | 27° |
| 2026-04-24 16:16 | 50.94166 | 7.16054 | 4644 ft | 210 kts | 61° |
| 2026-04-24 16:16 | 50.94819 | 7.18185 | 5202 ft | 224 kts | 61° |
| 2026-04-24 16:17 | 50.97214 | 7.25724 | 7263 ft | 269 kts | 60° |
| 2026-04-24 16:17 | 50.98726 | 7.31271 | 9095 ft | 284 kts | 78° |
| 2026-04-24 16:18 | 50.97577 | 7.37271 | 10795 ft | 303 kts | 131° |
| 2026-04-24 16:18 | 50.94566 | 7.42100 | 12301 ft | 318 kts | 135° |
| 2026-04-24 16:18 | 50.92961 | 7.44629 | 12819 ft | 333 kts | 135° |
| 2026-04-24 16:19 | 50.89559 | 7.50010 | 13913 ft | 356 kts | 135° |
| 2026-04-24 16:19 | 50.87795 | 7.52814 | 14526 ft | 362 kts | 135° |
| 2026-04-24 16:20 | 50.84194 | 7.58544 | 15861 ft | 370 kts | 136° |
| 2026-04-24 16:20 | 50.80529 | 7.64350 | 17246 ft | 376 kts | 136° |
| 2026-04-24 16:20 | 50.78674 | 7.67286 | 17959 ft | 379 kts | 136° |
| 2026-04-24 16:21 | 50.74909 | 7.73223 | 19190 ft | 386 kts | 136° |
| 2026-04-24 16:21 | 50.73649 | 7.75209 | 19569 ft | 388 kts | 136° |
| 2026-04-24 16:21 | 50.71725 | 7.78238 | 20155 ft | 392 kts | 137° |
| 2026-04-24 16:22 | 50.69778 | 7.81296 | 20736 ft | 396 kts | 137° |
| 2026-04-24 16:22 | 50.65835 | 7.87475 | 21869 ft | 403 kts | 137° |
| 2026-04-24 16:22 | 50.63836 | 7.90605 | 22423 ft | 407 kts | 137° |
| 2026-04-24 16:23 | 50.61820 | 7.93761 | 22973 ft | 411 kts | 137° |
| 2026-04-24 16:23 | 50.59778 | 7.96952 | 23500 ft | 415 kts | 137° |
| 2026-04-24 16:23 | 50.57725 | 8.00152 | 24006 ft | 417 kts | 137° |
| 2026-04-24 16:24 | 50.53570 | 8.06628 | 24927 ft | 423 kts | 137° |
| 2026-04-24 16:24 | 50.51474 | 8.09890 | 25388 ft | 425 kts | 137° |
| 2026-04-24 16:24 | 50.49367 | 8.13166 | 25837 ft | 428 kts | 138° |
| 2026-04-24 16:24 | 50.47247 | 8.16459 | 26280 ft | 430 kts | 138° |
| 2026-04-24 16:25 | 50.45111 | 8.19772 | 26716 ft | 433 kts | 138° |
| 2026-04-24 16:25 | 50.42961 | 8.23090 | 27150 ft | 435 kts | 138° |
| 2026-04-24 16:25 | 50.40797 | 8.26419 | 27582 ft | 437 kts | 138° |
| 2026-04-24 16:26 | 50.36421 | 8.33136 | 28439 ft | 443 kts | 138° |
| 2026-04-24 16:26 | 50.34211 | 8.36526 | 28819 ft | 446 kts | 137° |
| 2026-04-24 16:26 | 50.29764 | 8.43349 | 29655 ft | 450 kts | 137° |
| 2026-04-24 16:27 | 50.27522 | 8.46786 | 30050 ft | 453 kts | 137° |
| 2026-04-24 16:27 | 50.25264 | 8.50242 | 30397 ft | 455 kts | 137° |
| 2026-04-24 16:27 | 50.22872 | 8.53472 | 30705 ft | 454 kts | 149° |
| 2026-04-24 16:27 | 50.20063 | 8.55674 | 31008 ft | 450 kts | 164° |
| 2026-04-24 16:28 | 50.17028 | 8.56692 | 31123 ft | 442 kts | 176° |
| 2026-04-24 16:28 | 50.14024 | 8.57222 | 31139 ft | 427 kts | 177° |
| 2026-04-24 16:28 | 50.08222 | 8.58188 | 31137 ft | 414 kts | 177° |
| 2026-04-24 16:29 | 50.02502 | 8.59127 | 31139 ft | 413 kts | 177° |
| 2026-04-24 16:30 | 49.91081 | 8.61032 | 31150 ft | 412 kts | 176° |
| 2026-04-24 16:30 | 49.85408 | 8.61991 | 31142 ft | 412 kts | 176° |
| 2026-04-24 16:31 | 49.79709 | 8.62959 | 31142 ft | 412 kts | 176° |
| 2026-04-24 16:31 | 49.74008 | 8.63907 | 31145 ft | 412 kts | 176° |
| 2026-04-24 16:32 | 49.68312 | 8.64854 | 31149 ft | 412 kts | 176° |
| 2026-04-24 16:32 | 49.62616 | 8.65804 | 31146 ft | 411 kts | 176° |
| 2026-04-24 16:33 | 49.56923 | 8.66758 | 31148 ft | 412 kts | 176° |
| 2026-04-24 16:33 | 49.51230 | 8.67695 | 31150 ft | 411 kts | 176° |
| 2026-04-24 16:34 | 49.45539 | 8.68630 | 31150 ft | 411 kts | 176° |
| 2026-04-24 16:34 | 49.39845 | 8.69575 | 31144 ft | 411 kts | 176° |
| 2026-04-24 16:35 | 49.34153 | 8.70504 | 31145 ft | 411 kts | 176° |
| 2026-04-24 16:35 | 49.28465 | 8.71430 | 31146 ft | 411 kts | 176° |
| 2026-04-24 16:36 | 49.22776 | 8.72362 | 31145 ft | 411 kts | 176° |
| 2026-04-24 16:36 | 49.17088 | 8.73298 | 31133 ft | 411 kts | 175° |
| 2026-04-24 16:37 | 49.11404 | 8.74220 | 31136 ft | 411 kts | 175° |
| 2026-04-24 16:37 | 49.08571 | 8.74679 | 30688 ft | 409 kts | 175° |
| 2026-04-24 16:37 | 49.05703 | 8.75138 | 30191 ft | 408 kts | 175° |
| 2026-04-24 16:38 | 49.02921 | 8.75584 | 29664 ft | 406 kts | 175° |
| 2026-04-24 16:38 | 49.00081 | 8.76045 | 29151 ft | 403 kts | 175° |
| 2026-04-24 16:38 | 48.97300 | 8.76495 | 28665 ft | 400 kts | 175° |
| 2026-04-24 16:38 | 48.94539 | 8.76941 | 28204 ft | 397 kts | 175° |
| 2026-04-24 16:39 | 48.91800 | 8.77386 | 27747 ft | 395 kts | 175° |
| 2026-04-24 16:39 | 48.89077 | 8.77690 | 27306 ft | 391 kts | 182° |
| 2026-04-24 16:39 | 48.86411 | 8.77344 | 26867 ft | 387 kts | 191° |
| 2026-04-24 16:39 | 48.83767 | 8.76623 | 26429 ft | 385 kts | 192° |
| 2026-04-24 16:40 | 48.81134 | 8.75908 | 26003 ft | 383 kts | 191° |
| 2026-04-24 16:40 | 48.78518 | 8.75204 | 25581 ft | 381 kts | 192° |
| 2026-04-24 16:40 | 48.75916 | 8.74509 | 25170 ft | 379 kts | 191° |
| 2026-04-24 16:40 | 48.73323 | 8.73820 | 24748 ft | 377 kts | 191° |
| 2026-04-24 16:41 | 48.70749 | 8.73136 | 24322 ft | 375 kts | 192° |
| 2026-04-24 16:41 | 48.68185 | 8.72457 | 23906 ft | 373 kts | 191° |
| 2026-04-24 16:41 | 48.65641 | 8.71784 | 23449 ft | 371 kts | 192° |
| 2026-04-24 16:41 | 48.63105 | 8.71110 | 22933 ft | 369 kts | 191° |
| 2026-04-24 16:42 | 48.60589 | 8.70438 | 22442 ft | 366 kts | 191° |
| 2026-04-24 16:42 | 48.58086 | 8.69770 | 21965 ft | 364 kts | 191° |
| 2026-04-24 16:42 | 48.55600 | 8.69112 | 21491 ft | 362 kts | 192° |
| 2026-04-24 16:42 | 48.53125 | 8.68459 | 21020 ft | 360 kts | 192° |
| 2026-04-24 16:43 | 48.50665 | 8.67810 | 20548 ft | 358 kts | 191° |
| 2026-04-24 16:43 | 48.48215 | 8.67157 | 20108 ft | 356 kts | 191° |
| 2026-04-24 16:43 | 48.45788 | 8.66508 | 19662 ft | 354 kts | 191° |
| 2026-04-24 16:43 | 48.43369 | 8.65862 | 19223 ft | 352 kts | 191° |
| 2026-04-24 16:44 | 48.40967 | 8.65222 | 18781 ft | 350 kts | 191° |
| 2026-04-24 16:44 | 48.38575 | 8.64590 | 18346 ft | 348 kts | 191° |
| 2026-04-24 16:44 | 48.36194 | 8.63943 | 17851 ft | 347 kts | 191° |
| 2026-04-24 16:44 | 48.33833 | 8.63246 | 17402 ft | 344 kts | 192° |
| 2026-04-24 16:45 | 48.31495 | 8.62530 | 16957 ft | 342 kts | 192° |
| 2026-04-24 16:45 | 48.29175 | 8.61810 | 16518 ft | 339 kts | 193° |
| 2026-04-24 16:45 | 48.26869 | 8.61096 | 16081 ft | 338 kts | 192° |
| 2026-04-24 16:45 | 48.24569 | 8.60391 | 15652 ft | 336 kts | 193° |
| 2026-04-24 16:46 | 48.22287 | 8.59697 | 15230 ft | 334 kts | 193° |
| 2026-04-24 16:46 | 48.20018 | 8.59012 | 14817 ft | 332 kts | 192° |
| 2026-04-24 16:46 | 48.17756 | 8.58334 | 14423 ft | 329 kts | 192° |
| 2026-04-24 16:46 | 48.15515 | 8.57664 | 14026 ft | 327 kts | 193° |
| 2026-04-24 16:47 | 48.13289 | 8.57002 | 13599 ft | 325 kts | 193° |
| 2026-04-24 16:47 | 48.11070 | 8.56344 | 13160 ft | 323 kts | 192° |
| 2026-04-24 16:47 | 48.08873 | 8.55692 | 12744 ft | 321 kts | 192° |
| 2026-04-24 16:47 | 48.06690 | 8.55044 | 12344 ft | 319 kts | 192° |
| 2026-04-24 16:48 | 48.04522 | 8.54402 | 11946 ft | 316 kts | 192° |
| 2026-04-24 16:48 | 48.02371 | 8.53762 | 11556 ft | 314 kts | 192° |
| 2026-04-24 16:48 | 48.00230 | 8.53124 | 11168 ft | 313 kts | 192° |
| 2026-04-24 16:48 | 47.98108 | 8.52496 | 10822 ft | 309 kts | 192° |
| 2026-04-24 16:49 | 47.96031 | 8.51883 | 10661 ft | 300 kts | 192° |
| 2026-04-24 16:49 | 47.93999 | 8.51268 | 10365 ft | 296 kts | 193° |
| 2026-04-24 16:49 | 47.92007 | 8.50516 | 10043 ft | 294 kts | 197° |
| 2026-04-24 16:49 | 47.90049 | 8.49670 | 9698 ft | 292 kts | 198° |
| 2026-04-24 16:50 | 47.88765 | 8.49092 | 9473 ft | 290 kts | 198° |
| 2026-04-24 16:50 | 47.86191 | 8.47933 | 9007 ft | 288 kts | 198° |
| 2026-04-24 16:50 | 47.84278 | 8.47082 | 8651 ft | 286 kts | 197° |
| 2026-04-24 16:50 | 47.82396 | 8.46259 | 8306 ft | 285 kts | 198° |
| 2026-04-24 16:51 | 47.80498 | 8.45438 | 7971 ft | 283 kts | 197° |
| 2026-04-24 16:51 | 47.78612 | 8.44624 | 7645 ft | 281 kts | 197° |
| 2026-04-24 16:51 | 47.76743 | 8.43821 | 7319 ft | 279 kts | 196° |
| 2026-04-24 16:51 | 47.74884 | 8.43026 | 6994 ft | 277 kts | 196° |
| 2026-04-24 16:52 | 47.73040 | 8.42238 | 6684 ft | 275 kts | 195° |
| 2026-04-24 16:52 | 47.71199 | 8.41451 | 6349 ft | 273 kts | 195° |
| 2026-04-24 16:52 | 47.69375 | 8.40671 | 5954 ft | 274 kts | 196° |
| 2026-04-24 16:52 | 47.68159 | 8.40151 | 5768 ft | 272 kts | 196° |
| 2026-04-24 16:53 | 47.65823 | 8.39155 | 5588 ft | 250 kts | 196° |
| 2026-04-24 16:53 | 47.64212 | 8.38468 | 5462 ft | 233 kts | 196° |
| 2026-04-24 16:53 | 47.62697 | 8.37823 | 5229 ft | 222 kts | 196° |